Time;durP1;ratioP1;P1;durP2;ratioP2;P2;SDS_P1;SDS_P2;PMS_P1;PMS_P2;Temp;Humidity;BMP_temperature;BMP_pressure;BME280_temperature;BME280_humidity;BME280_pressure;Samples;Min_cycle;Max_cycle;Signal;HPM_P1;HPM_P2
2023/02/10 00:01:50;;;;;;;;;;;19.00;48.30;;;;;;7525858;23;19921;-76
2023/02/10 00:04:51;;;;;;;;;;;19.00;48.40;;;;;;7525520;23;20248;-76
2023/02/10 00:07:51;;;;;;;;;;;18.90;48.20;;;;;;7520931;23;19993;-74
2023/02/10 00:10:55;;;;;;;;;;;19.00;48.20;;;;;;7525956;23;19913;-76
2023/02/10 00:13:56;;;;;;;;;;;19.00;48.40;;;;;;7525109;23;19942;-76
2023/02/10 00:16:57;;;;;;;;;;;19.00;48.30;;;;;;7521433;23;20546;-75
2023/02/10 00:19:57;;;;;;;;;;;19.00;48.40;;;;;;7525611;23;19933;-75
2023/02/10 00:22:58;;;;;;;;;;;19.00;48.40;;;;;;7525763;23;19910;-75
2023/02/10 00:26:01;;;;;;;;;;;18.90;48.30;;;;;;7530977;23;19967;-76
2023/02/10 00:29:02;;;;;;;;;;;19.00;48.40;;;;;;7525760;23;19913;-75
2023/02/10 00:32:02;;;;;;;;;;;19.00;48.40;;;;;;7525570;23;19917;-74
2023/02/10 00:35:03;;;;;;;;;;;18.90;48.20;;;;;;7525277;23;19961;-76
2023/02/10 00:38:04;;;;;;;;;;;18.90;48.30;;;;;;7525468;23;20383;-76
2023/02/10 00:41:14;;;;;;;;;;;18.90;48.20;;;;;;7525861;23;19909;-76
2023/02/10 00:44:15;;;;;;;;;;;18.90;48.30;;;;;;7525104;23;19953;-76
2023/02/10 00:47:16;;;;;;;;;;;18.90;48.30;;;;;;7531298;23;19964;-74
2023/02/10 00:50:16;;;;;;;;;;;19.00;48.30;;;;;;7500021;23;19917;-75
2023/02/10 00:53:17;;;;;;;;;;;19.00;48.40;;;;;;7525727;23;19916;-74
2023/02/10 00:56:18;;;;;;;;;;;18.90;48.30;;;;;;7525720;23;19953;-75
2023/02/10 00:59:20;;;;;;;;;;;18.90;48.30;;;;;;7525583;23;19945;-75
2023/02/10 01:02:20;;;;;;;;;;;18.90;48.30;;;;;;7525742;23;19988;-75
2023/02/10 01:05:20;;;;;;;;;;;18.90;48.20;;;;;;7525567;23;19909;-76
2023/02/10 01:08:21;;;;;;;;;;;19.00;48.30;;;;;;7521405;23;20386;-75
2023/02/10 01:11:23;;;;;;;;;;;18.90;48.20;;;;;;7525395;23;19914;-75
2023/02/10 01:14:24;;;;;;;;;;;18.90;48.20;;;;;;7525000;23;20362;-75
2023/02/10 01:17:24;;;;;;;;;;;19.00;48.40;;;;;;7521114;23;20001;-75
2023/02/10 01:20:25;;;;;;;;;;;19.00;48.40;;;;;;7525648;23;19984;-74
2023/02/10 01:23:26;;;;;;;;;;;18.90;48.30;;;;;;7524726;23;19910;-75
2023/02/10 01:26:26;;;;;;;;;;;18.90;48.30;;;;;;7500365;23;19917;-75
2023/02/10 01:29:27;;;;;;;;;;;19.00;48.40;;;;;;7525320;23;19910;-75
2023/02/10 01:32:27;;;;;;;;;;;18.90;48.30;;;;;;7525684;23;20284;-74
2023/02/10 01:35:28;;;;;;;;;;;19.00;48.40;;;;;;7520705;23;19910;-74
2023/02/10 01:38:28;;;;;;;;;;;19.00;48.40;;;;;;7525143;23;19960;-75
2023/02/10 01:41:29;;;;;;;;;;;18.90;48.30;;;;;;7525542;23;19988;-75
2023/02/10 01:44:29;;;;;;;;;;;19.00;48.40;;;;;;7525358;23;19910;-76
2023/02/10 01:47:30;;;;;;;;;;;18.90;48.30;;;;;;7525355;23;20290;-75
2023/02/10 01:50:34;;;;;;;;;;;19.00;48.40;;;;;;7524893;23;19921;-75
2023/02/10 01:53:34;;;;;;;;;;;19.00;48.40;;;;;;7525206;23;20285;-74
2023/02/10 01:56:35;;;;;;;;;;;18.90;48.30;;;;;;7525158;23;19968;-75
2023/02/10 01:59:37;;;;;;;;;;;19.00;48.50;;;;;;7525194;23;19945;-76
2023/02/10 02:02:38;;;;;;;;;;;18.90;48.20;;;;;;7525408;23;19910;-75
2023/02/10 02:05:40;;;;;;;;;;;18.90;48.30;;;;;;7524591;23;20534;-75
2023/02/10 02:08:41;;;;;;;;;;;18.90;48.30;;;;;;7525243;23;19941;-75
2023/02/10 02:11:43;;;;;;;;;;;19.00;48.40;;;;;;7524897;23;19985;-75
2023/02/10 02:14:49;;;;;;;;;;;19.00;48.50;;;;;;7524814;23;19910;-75
2023/02/10 02:17:52;;;;;;;;;;;19.00;48.40;;;;;;7524913;23;19917;-75
2023/02/10 02:20:53;;;;;;;;;;;19.00;48.40;;;;;;7524790;23;19956;-75
2023/02/10 02:24:02;;;;;;;;;;;18.90;48.40;;;;;;7524889;23;19909;-75
2023/02/10 02:27:21;;;;;;;;;;;18.90;48.40;;;;;;7525091;23;20384;-75
2023/02/10 02:30:32;;;;;;;;;;;18.90;48.30;;;;;;7520402;23;19937;-74
2023/02/10 02:33:39;;;;;;;;;;;19.00;48.50;;;;;;7525244;23;19917;-75
2023/02/10 02:36:48;;;;;;;;;;;19.00;48.50;;;;;;7524643;23;19918;-74
2023/02/10 02:39:51;;;;;;;;;;;19.00;48.50;;;;;;7525045;23;20288;-74
2023/02/10 02:42:51;;;;;;;;;;;18.90;48.40;;;;;;7524854;23;19945;-75
2023/02/10 02:45:52;;;;;;;;;;;18.90;48.50;;;;;;7530200;23;19980;-75
2023/02/10 02:48:57;;;;;;;;;;;18.90;48.40;;;;;;7524277;23;19917;-75
2023/02/10 02:52:06;;;;;;;;;;;18.90;48.40;;;;;;7524548;23;19916;-75
2023/02/10 02:55:12;;;;;;;;;;;18.90;48.40;;;;;;7524735;23;19917;-75
2023/02/10 02:58:20;;;;;;;;;;;18.90;48.50;;;;;;7525145;23;19998;-75
2023/02/10 03:01:24;;;;;;;;;;;18.90;48.40;;;;;;7501056;23;20000;-75
2023/02/10 03:04:30;;;;;;;;;;;18.90;48.40;;;;;;7525691;23;19909;-75
2023/02/10 03:07:30;;;;;;;;;;;18.90;48.40;;;;;;7521800;23;19933;-75
2023/02/10 03:10:31;;;;;;;;;;;18.90;49.20;;;;;;7531431;23;20286;-76
2023/02/10 03:13:31;;;;;;;;;;;18.90;48.50;;;;;;7521754;23;19913;-75
2023/02/10 03:16:32;;;;;;;;;;;18.90;48.40;;;;;;7525881;23;19922;-75
2023/02/10 03:19:32;;;;;;;;;;;18.90;48.40;;;;;;7526281;23;19917;-75
2023/02/10 03:22:33;;;;;;;;;;;18.90;49.10;;;;;;7531330;23;19917;-74
2023/02/10 03:25:33;;;;;;;;;;;18.90;48.40;;;;;;7526363;23;19909;-77
2023/02/10 03:28:34;;;;;;;;;;;18.90;48.40;;;;;;7526230;23;19964;-74
2023/02/10 03:31:34;;;;;;;;;;;18.90;48.40;;;;;;7526158;23;19909;-75
2023/02/10 03:34:35;;;;;;;;;;;18.90;48.40;;;;;;7531577;23;19910;-74
2023/02/10 03:37:35;;;;;;;;;;;18.90;48.50;;;;;;7525753;23;19940;-74
2023/02/10 03:40:36;;;;;;;;;;;18.90;48.50;;;;;;7521611;23;19987;-76
2023/02/10 03:43:37;;;;;;;;;;;18.90;48.50;;;;;;7525972;23;19913;-75
2023/02/10 03:46:37;;;;;;;;;;;18.90;48.50;;;;;;7525657;23;20356;-74
2023/02/10 03:49:38;;;;;;;;;;;18.90;48.50;;;;;;7525852;23;19980;-76
2023/02/10 03:52:38;;;;;;;;;;;18.90;48.50;;;;;;7525834;23;19914;-75
2023/02/10 03:55:39;;;;;;;;;;;18.90;48.50;;;;;;7526199;23;19910;-76
2023/02/10 03:58:39;;;;;;;;;;;18.90;48.50;;;;;;7525614;23;20249;-75
2023/02/10 04:01:40;;;;;;;;;;;18.90;48.50;;;;;;7525933;23;19910;-74
2023/02/10 04:04:40;;;;;;;;;;;18.90;48.50;;;;;;7525754;23;19914;-75
2023/02/10 04:07:41;;;;;;;;;;;18.90;48.60;;;;;;7525961;23;19914;-76
2023/02/10 04:10:42;;;;;;;;;;;18.90;48.60;;;;;;7525147;23;19919;-75
2023/02/10 04:13:42;;;;;;;;;;;18.90;48.60;;;;;;7526308;23;20325;-74
2023/02/10 04:16:43;;;;;;;;;;;18.90;48.60;;;;;;7525590;23;19933;-76
2023/02/10 04:19:43;;;;;;;;;;;18.90;48.70;;;;;;7526147;23;19909;-75
2023/02/10 04:22:44;;;;;;;;;;;18.90;48.60;;;;;;7520888;23;19980;-75
2023/02/10 04:25:44;;;;;;;;;;;18.90;48.60;;;;;;7525628;23;20324;-75
2023/02/10 04:28:45;;;;;;;;;;;18.90;48.50;;;;;;7525766;23;19909;-75
2023/02/10 04:31:45;;;;;;;;;;;18.90;48.50;;;;;;7525792;23;19909;-75
2023/02/10 04:34:46;;;;;;;;;;;18.90;48.50;;;;;;7526133;23;19917;-75
2023/02/10 04:37:46;;;;;;;;;;;18.90;48.50;;;;;;7525457;23;19922;-76
2023/02/10 04:40:47;;;;;;;;;;;18.90;48.50;;;;;;7525789;23;20380;-75
2023/02/10 04:43:47;;;;;;;;;;;18.90;48.50;;;;;;7525909;23;19909;-75
2023/02/10 04:46:49;;;;;;;;;;;18.90;48.60;;;;;;7530650;23;19913;-76
2023/02/10 04:49:50;;;;;;;;;;;18.90;48.50;;;;;;7525570;23;19918;-75
2023/02/10 04:52:50;;;;;;;;;;;18.90;48.50;;;;;;7525385;23;20240;-76
2023/02/10 04:55:51;;;;;;;;;;;18.90;48.60;;;;;;7525631;23;20020;-75
2023/02/10 04:58:51;;;;;;;;;;;18.90;48.50;;;;;;7525656;23;20285;-75
2023/02/10 05:01:52;;;;;;;;;;;18.90;48.60;;;;;;7500430;23;19918;-75
2023/02/10 05:04:52;;;;;;;;;;;18.90;49.30;;;;;;7525595;23;19998;-75
2023/02/10 05:07:53;;;;;;;;;;;18.90;48.60;;;;;;7525259;23;19913;-76
2023/02/10 05:10:54;;;;;;;;;;;18.90;48.60;;;;;;7525232;23;19972;-74
2023/02/10 05:13:54;;;;;;;;;;;18.90;48.50;;;;;;7530850;23;20340;-75
2023/02/10 05:16:55;;;;;;;;;;;18.90;48.60;;;;;;7525453;23;19943;-75
2023/02/10 05:19:55;;;;;;;;;;;18.90;48.70;;;;;;7525215;23;19963;-76
2023/02/10 05:22:56;;;;;;;;;;;18.90;48.70;;;;;;7525191;23;20313;-76
2023/02/10 05:25:56;;;;;;;;;;;18.90;48.80;;;;;;7524957;23;19910;-76
2023/02/10 05:28:57;;;;;;;;;;;18.90;48.80;;;;;;7529986;23;19988;-75
2023/02/10 05:31:57;;;;;;;;;;;18.90;48.80;;;;;;7523235;23;19952;-76
2023/02/10 05:34:58;;;;;;;;;;;18.90;48.80;;;;;;7523807;23;19944;-75
2023/02/10 05:38:01;;;;;;;;;;;18.90;48.90;;;;;;7523387;23;19929;-75
2023/02/10 05:41:02;;;;;;;;;;;18.90;48.90;;;;;;7523563;23;19949;-75
2023/02/10 05:44:03;;;;;;;;;;;18.90;48.90;;;;;;7524947;23;20404;-75
2023/02/10 05:47:04;;;;;;;;;;;18.90;49.00;;;;;;7525252;23;19910;-74
2023/02/10 05:50:04;;;;;;;;;;;18.90;49.00;;;;;;7526482;23;20387;-75
2023/02/10 05:53:05;;;;;;;;;;;18.90;49.70;;;;;;7525178;23;19918;-76
2023/02/10 05:56:06;;;;;;;;;;;18.90;49.00;;;;;;7525029;23;19914;-75
2023/02/10 05:59:07;;;;;;;;;;;18.90;49.00;;;;;;7525159;23;20341;-75
2023/02/10 06:02:07;;;;;;;;;;;18.90;49.00;;;;;;7524142;23;19909;-75
2023/02/10 06:05:08;;;;;;;;;;;18.90;49.00;;;;;;7525038;23;19913;-75
2023/02/10 06:08:08;;;;;;;;;;;19.00;49.10;;;;;;7524953;23;19964;-75
2023/02/10 06:11:09;;;;;;;;;;;19.00;49.20;;;;;;7524780;23;19910;-76
2023/02/10 06:14:09;;;;;;;;;;;19.00;49.20;;;;;;7520263;23;19917;-75
2023/02/10 06:17:10;;;;;;;;;;;18.90;49.00;;;;;;7520321;23;20321;-75
2023/02/10 06:20:11;;;;;;;;;;;18.90;49.10;;;;;;7524563;23;19920;-74
2023/02/10 06:23:11;;;;;;;;;;;19.00;49.20;;;;;;7524551;23;19929;-75
2023/02/10 06:26:12;;;;;;;;;;;18.90;49.10;;;;;;7523840;23;20284;-75
2023/02/10 06:29:12;;;;;;;;;;;18.90;49.10;;;;;;7499207;23;19989;-75
2023/02/10 06:32:13;;;;;;;;;;;19.00;49.20;;;;;;7524281;23;20256;-76
2023/02/10 06:35:14;;;;;;;;;;;19.00;49.20;;;;;;7514249;23;19910;-75
2023/02/10 06:38:15;;;;;;;;;;;19.00;49.30;;;;;;7519856;23;19972;-76
2023/02/10 06:41:16;;;;;;;;;;;19.00;49.00;;;;;;7524805;23;19948;-76
2023/02/10 06:44:16;;;;;;;;;;;19.00;49.20;;;;;;7525857;23;19941;-74
2023/02/10 06:47:17;;;;;;;;;;;19.00;49.20;;;;;;7525299;23;20267;-76
2023/02/10 06:50:17;;;;;;;;;;;19.00;49.20;;;;;;7525528;23;19929;-76
2023/02/10 06:53:18;;;;;;;;;;;19.00;49.20;;;;;;7525420;23;19952;-75
2023/02/10 06:56:18;;;;;;;;;;;19.00;49.10;;;;;;7524336;23;19922;-76
2023/02/10 06:59:20;;;;;;;;;;;19.00;49.10;;;;;;7525140;23;19945;-76
2023/02/10 07:02:20;;;;;;;;;;;19.00;49.20;;;;;;7527013;23;20424;-76
2023/02/10 07:05:21;;;;;;;;;;;19.00;49.20;;;;;;7527267;23;19909;-75
2023/02/10 07:08:21;;;;;;;;;;;19.00;49.20;;;;;;7526615;23;19910;-76
2023/02/10 07:11:22;;;;;;;;;;;19.00;49.20;;;;;;7527381;23;19937;-75
2023/02/10 07:14:22;;;;;;;;;;;19.00;49.20;;;;;;7527115;23;20351;-75
2023/02/10 07:17:23;;;;;;;;;;;19.00;49.30;;;;;;7528336;23;19922;-75
2023/02/10 07:20:23;;;;;;;;;;;19.00;49.30;;;;;;7527449;23;19909;-76
2023/02/10 07:23:24;;;;;;;;;;;19.00;49.30;;;;;;7519841;23;20325;-75
2023/02/10 07:26:25;;;;;;;;;;;19.00;49.30;;;;;;7532557;23;19910;-75
2023/02/10 07:29:25;;;;;;;;;;;19.00;49.40;;;;;;7532391;23;20509;-75
2023/02/10 07:32:26;;;;;;;;;;;19.00;49.30;;;;;;7527083;23;19928;-75
2023/02/10 07:35:26;;;;;;;;;;;19.00;49.40;;;;;;7527745;23;19979;-75
2023/02/10 07:38:27;;;;;;;;;;;19.00;49.30;;;;;;7526907;23;19984;-75
2023/02/10 07:41:27;;;;;;;;;;;19.00;49.30;;;;;;7531823;23;20284;-75
2023/02/10 07:44:28;;;;;;;;;;;19.00;49.30;;;;;;7501193;23;19916;-76
2023/02/10 07:47:28;;;;;;;;;;;19.00;49.40;;;;;;7526156;23;20333;-77
2023/02/10 07:50:29;;;;;;;;;;;18.90;49.30;;;;;;7526961;23;20337;-76
2023/02/10 07:53:29;;;;;;;;;;;19.00;49.40;;;;;;7526839;23;20341;-75
2023/02/10 07:56:30;;;;;;;;;;;18.90;49.30;;;;;;7527204;23;20424;-75
2023/02/10 07:59:30;;;;;;;;;;;19.00;49.40;;;;;;7526215;23;19996;-76
2023/02/10 08:02:31;;;;;;;;;;;18.90;49.30;;;;;;7514048;23;20372;-74
2023/02/10 08:05:31;;;;;;;;;;;19.00;49.40;;;;;;7527289;23;19958;-75
2023/02/10 08:08:32;;;;;;;;;;;19.00;49.40;;;;;;7526930;23;19968;-75
2023/02/10 08:11:32;;;;;;;;;;;19.00;49.40;;;;;;7526750;23;19914;-75
2023/02/10 08:14:33;;;;;;;;;;;19.00;49.40;;;;;;7526993;23;20374;-75
2023/02/10 08:17:33;;;;;;;;;;;19.00;49.40;;;;;;7526087;23;20009;-75
2023/02/10 08:20:34;;;;;;;;;;;19.00;49.40;;;;;;7527507;23;19916;-75
2023/02/10 08:23:35;;;;;;;;;;;19.00;49.40;;;;;;7526024;23;19964;-74
2023/02/10 08:26:35;;;;;;;;;;;19.00;49.50;;;;;;7527168;23;20025;-75
2023/02/10 08:29:36;;;;;;;;;;;19.00;49.50;;;;;;7527040;23;19910;-76
2023/02/10 08:32:36;;;;;;;;;;;18.90;49.30;;;;;;7527611;23;20344;-76
2023/02/10 08:35:38;;;;;;;;;;;18.90;49.40;;;;;;7527245;23;19945;-75
2023/02/10 08:38:38;;;;;;;;;;;19.00;49.50;;;;;;7527042;23;19918;-75
2023/02/10 08:41:39;;;;;;;;;;;19.00;49.50;;;;;;7526934;23;19916;-75
2023/02/10 08:44:39;;;;;;;;;;;19.10;49.30;;;;;;7526261;23;19916;-74
2023/02/10 08:47:40;;;;;;;;;;;19.10;49.20;;;;;;7521611;23;19910;-75
2023/02/10 08:50:40;;;;;;;;;;;19.10;49.10;;;;;;7522192;23;20240;-76
2023/02/10 08:53:41;;;;;;;;;;;19.10;49.10;;;;;;7526901;23;19987;-75
2023/02/10 08:56:42;;;;;;;;;;;19.20;49.60;;;;;;7526813;23;19921;-74
2023/02/10 08:59:42;;;;;;;;;;;19.10;49.20;;;;;;7527091;23;20264;-75
2023/02/10 09:02:43;;;;;;;;;;;19.20;49.40;;;;;;7527555;23;20252;-75
2023/02/10 09:05:45;;;;;;;;;;;19.10;49.40;;;;;;7526778;23;19984;-75
2023/02/10 09:08:47;;;;;;;;;;;19.10;49.40;;;;;;7530490;23;19945;-75
2023/02/10 09:11:48;;;;;;;;;;;19.10;49.50;;;;;;7527318;23;20376;-75
2023/02/10 09:14:48;;;;;;;;;;;19.10;49.50;;;;;;7514458;23;20532;-74
2023/02/10 09:17:49;;;;;;;;;;;19.10;49.50;;;;;;7523381;23;19918;-75
2023/02/10 09:20:49;;;;;;;;;;;19.10;49.60;;;;;;7498208;23;20376;-75
2023/02/10 09:23:50;;;;;;;;;;;19.00;49.50;;;;;;7520129;23;19910;-75
2023/02/10 09:26:51;;;;;;;;;;;19.00;50.20;;;;;;7527467;23;19916;-77
2023/02/10 09:29:51;;;;;;;;;;;19.00;49.50;;;;;;7526337;23;19963;-76
2023/02/10 09:32:52;;;;;;;;;;;19.00;49.50;;;;;;7532728;23;20329;-75
2023/02/10 09:35:52;;;;;;;;;;;19.00;49.50;;;;;;7531272;23;19913;-75
2023/02/10 09:38:54;;;;;;;;;;;19.00;49.50;;;;;;7526916;23;20321;-75
2023/02/10 09:42:03;;;;;;;;;;;19.00;49.50;;;;;;7526588;23;19910;-76
2023/02/10 09:45:09;;;;;;;;;;;19.00;49.50;;;;;;7522229;23;19968;-76
2023/02/10 09:48:18;;;;;;;;;;;19.00;49.50;;;;;;7525762;23;19909;-75
2023/02/10 09:51:28;;;;;;;;;;;19.00;49.50;;;;;;7526464;23;19940;-75
2023/02/10 09:54:31;;;;;;;;;;;19.00;49.50;;;;;;7526711;23;19925;-75
2023/02/10 09:57:40;;;;;;;;;;;19.00;49.50;;;;;;7529059;23;19918;-75
2023/02/10 10:00:42;;;;;;;;;;;19.00;49.60;;;;;;7531313;23;19909;-76
2023/02/10 10:03:46;;;;;;;;;;;19.00;49.60;;;;;;7526713;23;19909;-75
2023/02/10 10:06:49;;;;;;;;;;;19.00;49.50;;;;;;7526213;23;19910;-75
2023/02/10 10:09:59;;;;;;;;;;;19.00;49.60;;;;;;7526266;23;19937;-75
2023/02/10 10:13:00;;;;;;;;;;;19.00;49.60;;;;;;7526894;23;20317;-76
2023/02/10 10:16:00;;;;;;;;;;;19.00;49.60;;;;;;7526844;23;19917;-75
2023/02/10 10:19:21;;;;;;;;;;;19.00;49.60;;;;;;7526966;23;19925;-75
2023/02/10 10:22:25;;;;;;;;;;;19.00;49.60;;;;;;7556289;23;19910;-75
2023/02/10 10:25:33;;;;;;;;;;;19.00;49.60;;;;;;7526841;23;19917;-76
2023/02/10 10:28:42;;;;;;;;;;;19.00;49.60;;;;;;7526485;23;20276;-75
2023/02/10 10:31:44;;;;;;;;;;;19.00;49.60;;;;;;7527821;23;19936;-76
2023/02/10 10:34:51;;;;;;;;;;;19.00;49.60;;;;;;7526020;23;19909;-76
2023/02/10 10:37:51;;;;;;;;;;;19.00;49.60;;;;;;7522292;23;19925;-77
2023/02/10 10:40:55;;;;;;;;;;;19.00;49.60;;;;;;7526392;23;19921;-75
2023/02/10 10:43:56;;;;;;;;;;;19.00;49.70;;;;;;7526587;23;19918;-75
2023/02/10 10:46:57;;;;;;;;;;;19.00;49.70;;;;;;7526124;23;19925;-76
2023/02/10 10:49:58;;;;;;;;;;;19.00;49.70;;;;;;7525870;23;19918;-75
2023/02/10 10:53:01;;;;;;;;;;;19.00;49.70;;;;;;7526209;23;19909;-77
2023/02/10 10:56:03;;;;;;;;;;;19.00;49.70;;;;;;7528669;23;19909;-77
2023/02/10 10:59:12;;;;;;;;;;;19.00;49.70;;;;;;7526317;23;20405;-75
2023/02/10 11:02:13;;;;;;;;;;;19.00;49.70;;;;;;7531501;23;20326;-75
2023/02/10 11:05:15;;;;;;;;;;;19.00;49.70;;;;;;7525756;23;19910;-76
2023/02/10 11:08:23;;;;;;;;;;;19.00;49.70;;;;;;7525623;23;19913;-76
2023/02/10 11:11:34;;;;;;;;;;;18.90;49.60;;;;;;7525691;23;19910;-75
2023/02/10 11:14:43;;;;;;;;;;;19.00;49.70;;;;;;7525847;23;19917;-76
2023/02/10 11:17:46;;;;;;;;;;;19.00;49.80;;;;;;7530770;23;19925;-75
2023/02/10 11:20:55;;;;;;;;;;;19.00;49.80;;;;;;7527785;23;19910;-75
2023/02/10 11:23:56;;;;;;;;;;;18.90;49.70;;;;;;7527569;23;20031;-75
2023/02/10 11:26:58;;;;;;;;;;;19.00;49.80;;;;;;7523392;23;19916;-75
2023/02/10 11:29:58;;;;;;;;;;;19.00;49.80;;;;;;7527020;23;19910;-75
2023/02/10 11:33:00;;;;;;;;;;;19.00;49.80;;;;;;7527705;23;19909;-76
2023/02/10 11:36:04;;;;;;;;;;;19.00;49.80;;;;;;7530580;23;19910;-76
2023/02/10 11:39:06;;;;;;;;;;;19.00;49.80;;;;;;7530605;23;20296;-75
2023/02/10 11:42:08;;;;;;;;;;;19.00;49.80;;;;;;7526867;23;19910;-75
2023/02/10 11:45:19;;;;;;;;;;;18.90;49.70;;;;;;7527303;23;20547;-76
2023/02/10 11:48:22;;;;;;;;;;;19.00;49.80;;;;;;7527319;23;19916;-76
2023/02/10 11:51:23;;;;;;;;;;;18.90;49.70;;;;;;7526855;23;20230;-75
2023/02/10 11:54:24;;;;;;;;;;;19.00;49.80;;;;;;7523385;23;19914;-76
2023/02/10 12:01:06;;;;;;;;;;;19.00;49.80;;;;;;7527098;23;20209;-76
2023/02/10 12:04:22;;;;;;;;;;;19.00;49.80;;;;;;7527415;23;19917;-75
2023/02/10 12:07:29;;;;;;;;;;;18.90;49.80;;;;;;7525404;23;20272;-75
2023/02/10 12:10:45;;;;;;;;;;;19.00;49.80;;;;;;7521765;23;19983;-75
2023/02/10 12:13:51;;;;;;;;;;;18.90;49.80;;;;;;7527195;23;19914;-76
2023/02/10 12:16:52;;;;;;;;;;;19.00;49.90;;;;;;7527313;23;19920;-75
2023/02/10 12:19:52;;;;;;;;;;;18.90;49.80;;;;;;7527778;23;19963;-76
2023/02/10 12:23:32;;;;;;;;;;;18.90;49.80;;;;;;7526757;23;20297;-75
2023/02/10 12:26:38;;;;;;;;;;;18.90;49.80;;;;;;7600796;23;20004;-75
2023/02/10 12:29:52;;;;;;;;;;;19.00;50.60;;;;;;7600636;23;19956;-75
2023/02/10 12:32:59;;;;;;;;;;;19.00;49.90;;;;;;7526790;23;19909;-76
2023/02/10 12:36:00;;;;;;;;;;;18.90;49.80;;;;;;7524100;23;19956;-75
2023/02/10 12:39:00;;;;;;;;;;;18.90;49.80;;;;;;7523151;23;19925;-76
2023/02/10 12:42:06;;;;;;;;;;;19.00;49.90;;;;;;7526574;23;19909;-76
2023/02/10 12:45:20;;;;;;;;;;;18.90;49.80;;;;;;7527062;23;19913;-75
2023/02/10 12:48:20;;;;;;;;;;;18.90;49.80;;;;;;7530023;23;19909;-75
2023/02/10 12:51:20;;;;;;;;;;;19.00;49.90;;;;;;7526703;23;20013;-75
2023/02/10 12:54:26;;;;;;;;;;;19.00;49.90;;;;;;7527230;23;19910;-76
2023/02/10 12:57:28;;;;;;;;;;;19.00;49.90;;;;;;7526501;23;19918;-76
2023/02/10 13:00:49;;;;;;;;;;;19.00;49.90;;;;;;7526715;23;19910;-75
2023/02/10 13:03:53;;;;;;;;;;;18.90;49.80;;;;;;7536111;23;19916;-76
2023/02/10 13:07:02;;;;;;;;;;;18.90;49.80;;;;;;7526834;23;19910;-76
2023/02/10 13:10:25;;;;;;;;;;;18.90;49.80;;;;;;7527031;23;20245;-75
2023/02/10 13:13:29;;;;;;;;;;;18.90;49.80;;;;;;7526606;23;19906;-75
2023/02/10 13:16:32;;;;;;;;;;;18.90;50.50;;;;;;7526526;23;20376;-76
2023/02/10 13:19:51;;;;;;;;;;;18.90;49.80;;;;;;7526847;23;19917;-76
2023/02/10 13:22:51;;;;;;;;;;;18.90;49.90;;;;;;7525154;23;19985;-75
2023/02/10 13:25:55;;;;;;;;;;;18.90;50.50;;;;;;7525528;23;19968;-75
2023/02/10 13:29:08;;;;;;;;;;;18.90;49.80;;;;;;7525557;23;20028;-75
2023/02/10 13:32:08;;;;;;;;;;;18.90;49.90;;;;;;7526724;23;19913;-76
2023/02/10 13:35:14;;;;;;;;;;;18.90;49.80;;;;;;7526540;23;20280;-75
2023/02/10 13:38:16;;;;;;;;;;;18.90;49.90;;;;;;7526777;23;19914;-78
2023/02/10 13:41:41;;;;;;;;;;;18.90;49.80;;;;;;7521589;23;19992;-76
2023/02/10 13:44:41;;;;;;;;;;;18.90;50.50;;;;;;7527046;23;19941;-76
2023/02/10 13:47:45;;;;;;;;;;;18.90;49.80;;;;;;7526397;23;19910;-77
2023/02/10 13:50:47;;;;;;;;;;;18.90;49.90;;;;;;7526319;23;20318;-75
2023/02/10 13:53:49;;;;;;;;;;;18.90;49.90;;;;;;7526301;23;19983;-76
2023/02/10 13:56:54;;;;;;;;;;;18.90;49.90;;;;;;7511137;23;19949;-75
2023/02/10 14:00:04;;;;;;;;;;;18.90;49.90;;;;;;7526411;23;19906;-75
2023/02/10 14:03:11;;;;;;;;;;;18.90;49.90;;;;;;7512904;23;19930;-75
2023/02/10 14:06:11;;;;;;;;;;;18.90;49.90;;;;;;7526311;23;20284;-76
2023/02/10 14:09:30;;;;;;;;;;;18.90;49.90;;;;;;7524890;23;19988;-75
2023/02/10 14:12:31;;;;;;;;;;;18.90;49.90;;;;;;7525271;23;19933;-74
2023/02/10 14:15:36;;;;;;;;;;;18.90;49.90;;;;;;7525122;23;19906;-76
2023/02/10 14:18:38;;;;;;;;;;;18.90;49.90;;;;;;7523377;23;19921;-76
2023/02/10 14:21:40;;;;;;;;;;;18.90;49.70;;;;;;7523342;23;19993;-75
2023/02/10 14:24:44;;;;;;;;;;;18.90;48.90;;;;;;7519255;23;20301;-75
2023/02/10 14:27:54;;;;;;;;;;;18.90;49.10;;;;;;7523781;23;19952;-76
2023/02/10 14:30:57;;;;;;;;;;;18.90;49.30;;;;;;7517489;23;19905;-77
2023/02/10 14:33:58;;;;;;;;;;;18.90;49.40;;;;;;7518604;23;20612;-76
2023/02/10 14:37:01;;;;;;;;;;;18.90;49.30;;;;;;7525405;23;20317;-75
2023/02/10 14:40:03;;;;;;;;;;;18.90;49.40;;;;;;7525151;23;19959;-75
2023/02/10 14:43:03;;;;;;;;;;;18.90;49.50;;;;;;7520697;23;19910;-76
2023/02/10 14:46:04;;;;;;;;;;;18.90;49.50;;;;;;7521119;23;19921;-76
2023/02/10 14:49:09;;;;;;;;;;;18.90;49.50;;;;;;7524907;23;19917;-75
2023/02/10 14:52:21;;;;;;;;;;;18.90;49.50;;;;;;7525104;23;19906;-75
2023/02/10 14:55:24;;;;;;;;;;;18.90;49.50;;;;;;7526721;23;19917;-75
2023/02/10 14:58:25;;;;;;;;;;;18.90;49.50;;;;;;7526260;23;19921;-75
2023/02/10 15:01:32;;;;;;;;;;;18.90;49.50;;;;;;7526561;23;19906;-75
2023/02/10 15:04:33;;;;;;;;;;;18.90;49.50;;;;;;7526744;23;19913;-75
2023/02/10 15:07:39;;;;;;;;;;;18.90;49.60;;;;;;7527673;23;19928;-76
2023/02/10 15:10:46;;;;;;;;;;;18.90;49.60;;;;;;7526600;23;19906;-75
2023/02/10 15:13:47;;;;;;;;;;;18.90;49.70;;;;;;7521915;23;19963;-76
2023/02/10 15:16:48;;;;;;;;;;;18.90;49.60;;;;;;7526882;23;20356;-76
2023/02/10 15:19:56;;;;;;;;;;;18.90;49.60;;;;;;7526833;23;19906;-76
2023/02/10 15:22:57;;;;;;;;;;;18.90;49.60;;;;;;7526634;23;19976;-76
2023/02/10 15:26:02;;;;;;;;;;;18.90;50.30;;;;;;7527122;23;20267;-76
2023/02/10 15:29:08;;;;;;;;;;;18.90;49.60;;;;;;7526467;23;19929;-77
2023/02/10 15:32:18;;;;;;;;;;;18.90;49.60;;;;;;7526480;23;19910;-76
2023/02/10 15:35:19;;;;;;;;;;;18.90;49.70;;;;;;7527012;23;19910;-76
2023/02/10 15:38:19;;;;;;;;;;;18.90;49.70;;;;;;7526311;23;19917;-76
2023/02/10 15:41:23;;;;;;;;;;;18.90;49.70;;;;;;7526398;23;20284;-76
2023/02/10 15:44:29;;;;;;;;;;;18.90;49.70;;;;;;7526515;23;19989;-76
2023/02/10 15:47:40;;;;;;;;;;;18.90;49.70;;;;;;7526518;23;19906;-75
2023/02/10 15:50:41;;;;;;;;;;;18.90;49.70;;;;;;7523988;23;20244;-76
2023/02/10 15:53:41;;;;;;;;;;;18.90;49.70;;;;;;7523543;23;19909;-76
2023/02/10 15:56:42;;;;;;;;;;;18.90;49.70;;;;;;7523725;23;19920;-76
2023/02/10 15:59:43;;;;;;;;;;;18.90;49.70;;;;;;7523312;23;20217;-76
2023/02/10 16:02:44;;;;;;;;;;;18.90;49.70;;;;;;7523654;23;20382;-76
2023/02/10 16:05:45;;;;;;;;;;;18.90;49.70;;;;;;7524208;23;19989;-77
2023/02/10 16:08:45;;;;;;;;;;;18.90;49.70;;;;;;7527823;23;19906;-75
2023/02/10 16:11:46;;;;;;;;;;;18.90;49.70;;;;;;7527393;23;20317;-75
2023/02/10 16:14:46;;;;;;;;;;;18.90;49.70;;;;;;7527120;23;19913;-76
2023/02/10 16:17:48;;;;;;;;;;;18.90;49.70;;;;;;7527046;23;19914;-75
2023/02/10 16:20:49;;;;;;;;;;;18.90;49.80;;;;;;7523576;23;19910;-75
2023/02/10 16:23:49;;;;;;;;;;;18.90;49.80;;;;;;7523846;23;19906;-76
2023/02/10 16:26:50;;;;;;;;;;;18.90;49.80;;;;;;7524514;23;19910;-76
2023/02/10 16:29:51;;;;;;;;;;;18.90;49.80;;;;;;7528329;23;19910;-76
2023/02/10 16:32:52;;;;;;;;;;;18.90;49.90;;;;;;7524754;23;19937;-75
2023/02/10 16:35:52;;;;;;;;;;;18.90;49.80;;;;;;7523677;23;19921;-76
2023/02/10 16:38:55;;;;;;;;;;;18.90;49.90;;;;;;7523406;23;20218;-75
2023/02/10 16:41:55;;;;;;;;;;;18.90;49.80;;;;;;7523276;23;19985;-76
2023/02/10 16:44:56;;;;;;;;;;;18.90;50.50;;;;;;7523246;23;20264;-75
2023/02/10 16:47:57;;;;;;;;;;;18.90;49.80;;;;;;7523250;23;19916;-76
2023/02/10 16:50:58;;;;;;;;;;;18.90;49.70;;;;;;7522682;23;19926;-76
2023/02/10 16:53:58;;;;;;;;;;;18.90;49.90;;;;;;7522261;23;19913;-75
2023/02/10 16:56:59;;;;;;;;;;;18.90;49.90;;;;;;7523296;23;19913;-76
2023/02/10 17:00:01;;;;;;;;;;;18.90;49.90;;;;;;7522539;23;19981;-76
2023/02/10 17:03:01;;;;;;;;;;;18.90;49.90;;;;;;7522997;23;20280;-76
2023/02/10 17:06:02;;;;;;;;;;;18.90;49.90;;;;;;7523434;23;19909;-76
2023/02/10 17:09:02;;;;;;;;;;;18.90;49.90;;;;;;7522709;23;19987;-75
2023/02/10 17:12:03;;;;;;;;;;;18.90;49.90;;;;;;7522696;23;19913;-76
2023/02/10 17:15:03;;;;;;;;;;;18.90;49.90;;;;;;7521732;23;19906;-75
2023/02/10 17:18:04;;;;;;;;;;;18.90;49.90;;;;;;7494618;23;19964;-76
2023/02/10 17:21:05;;;;;;;;;;;18.90;49.90;;;;;;7521227;23;19913;-76
2023/02/10 17:24:05;;;;;;;;;;;18.90;49.90;;;;;;7520831;23;19976;-76
2023/02/10 17:27:06;;;;;;;;;;;18.90;49.90;;;;;;7521873;23;19906;-75
2023/02/10 17:30:07;;;;;;;;;;;18.90;49.90;;;;;;7520455;23;19928;-75
2023/02/10 17:33:27;;;;;;;;;;;18.90;49.90;;;;;;7521228;23;20218;-76
2023/02/10 17:36:27;;;;;;;;;;;18.90;49.90;;;;;;7521630;23;19906;-76
2023/02/10 17:39:32;;;;;;;;;;;18.90;49.90;;;;;;7520201;23;19952;-76
2023/02/10 17:42:33;;;;;;;;;;;18.90;50.00;;;;;;7521250;23;20332;-76
2023/02/10 17:45:33;;;;;;;;;;;18.90;50.00;;;;;;7516337;23;19937;-75